Terminal Aerodrome Forecast
Issued by NWS

Current Version | Previous Version | Text Only | Print | Product List | Glossary Off
Versions: 1 2 3 4 5 6 7 8 9 10 11 12 13 14 15 16 17 18 19 20 21 22 23 24

000
FTUS41 KRLX 152000 AAB
TAFCKB
TAF AMD
KCKB 152003Z 1520/1618 30010KT 3SM -SHSN OVC015
      TEMPO 1520/1521 1/2SM SN BKN008
     FM152100 29011G16KT P6SM OVC015
     FM152200 29011G16KT P6SM OVC025
     FM152300 30013G19KT P6SM OVC040
     FM160200 31009KT P6SM BKN100
     FM160400 31006KT P6SM SCT200
     FM160800 00000KT P6SM SKC
     FM161500 01004KT P6SM SKC=

USA.gov is the U.S. government's official web portal to all federal, state and local government web resources and services.